sensor_id;sensor_type;location;lat;lon;timestamp;P1;durP1;ratioP1;P2;durP2;ratioP2
22230;SDS011;11284;48.086;-1.652;2023-01-15T00:01:20;5.45;;;1.20;;
22230;SDS011;11284;48.086;-1.652;2023-01-15T00:03:46;5.28;;;1.10;;
22230;SDS011;11284;48.086;-1.652;2023-01-15T00:06:13;8.02;;;1.48;;
22230;SDS011;11284;48.086;-1.652;2023-01-15T00:08:39;4.97;;;1.20;;
22230;SDS011;11284;48.086;-1.652;2023-01-15T00:11:05;7.20;;;1.50;;
22230;SDS011;11284;48.086;-1.652;2023-01-15T00:13:31;6.95;;;1.55;;
22230;SDS011;11284;48.086;-1.652;2023-01-15T00:16:03;6.38;;;1.38;;
22230;SDS011;11284;48.086;-1.652;2023-01-15T00:18:30;5.95;;;1.20;;
22230;SDS011;11284;48.086;-1.652;2023-01-15T00:21:02;7.28;;;1.45;;
22230;SDS011;11284;48.086;-1.652;2023-01-15T00:23:29;6.55;;;1.40;;
22230;SDS011;11284;48.086;-1.652;2023-01-15T00:26:14;5.50;;;1.38;;
22230;SDS011;11284;48.086;-1.652;2023-01-15T00:28:59;5.47;;;1.10;;
22230;SDS011;11284;48.086;-1.652;2023-01-15T00:31:25;5.13;;;1.38;;
22230;SDS011;11284;48.086;-1.652;2023-01-15T00:33:51;6.95;;;1.38;;
22230;SDS011;11284;48.086;-1.652;2023-01-15T00:36:17;6.57;;;1.40;;
22230;SDS011;11284;48.086;-1.652;2023-01-15T00:38:43;5.93;;;1.17;;
22230;SDS011;11284;48.086;-1.652;2023-01-15T00:41:10;7.03;;;1.67;;
22230;SDS011;11284;48.086;-1.652;2023-01-15T00:43:36;5.88;;;1.08;;
22230;SDS011;11284;48.086;-1.652;2023-01-15T00:46:02;6.93;;;1.50;;
22230;SDS011;11284;48.086;-1.652;2023-01-15T00:48:29;9.35;;;1.20;;
22230;SDS011;11284;48.086;-1.652;2023-01-15T00:50:55;6.90;;;1.30;;
22230;SDS011;11284;48.086;-1.652;2023-01-15T00:53:21;7.40;;;1.20;;
22230;SDS011;11284;48.086;-1.652;2023-01-15T00:55:47;7.68;;;1.58;;
22230;SDS011;11284;48.086;-1.652;2023-01-15T00:58:13;7.78;;;1.45;;
22230;SDS011;11284;48.086;-1.652;2023-01-15T01:00:39;6.60;;;1.55;;
22230;SDS011;11284;48.086;-1.652;2023-01-15T01:03:05;8.55;;;1.50;;
22230;SDS011;11284;48.086;-1.652;2023-01-15T01:05:31;7.57;;;1.35;;
22230;SDS011;11284;48.086;-1.652;2023-01-15T01:07:57;6.38;;;1.25;;
22230;SDS011;11284;48.086;-1.652;2023-01-15T01:10:27;7.85;;;1.77;;
22230;SDS011;11284;48.086;-1.652;2023-01-15T01:12:53;5.55;;;0.93;;
22230;SDS011;11284;48.086;-1.652;2023-01-15T01:15:20;7.13;;;1.48;;
22230;SDS011;11284;48.086;-1.652;2023-01-15T01:17:46;7.63;;;1.38;;
22230;SDS011;11284;48.086;-1.652;2023-01-15T01:20:13;6.65;;;1.30;;
22230;SDS011;11284;48.086;-1.652;2023-01-15T01:22:40;7.15;;;1.73;;
22230;SDS011;11284;48.086;-1.652;2023-01-15T01:25:06;5.93;;;1.30;;
22230;SDS011;11284;48.086;-1.652;2023-01-15T01:27:33;4.80;;;1.05;;
22230;SDS011;11284;48.086;-1.652;2023-01-15T01:29:59;6.80;;;1.20;;
22230;SDS011;11284;48.086;-1.652;2023-01-15T01:32:25;9.23;;;1.40;;
22230;SDS011;11284;48.086;-1.652;2023-01-15T01:34:51;6.93;;;1.33;;
22230;SDS011;11284;48.086;-1.652;2023-01-15T01:37:17;5.35;;;1.13;;
22230;SDS011;11284;48.086;-1.652;2023-01-15T01:39:43;5.57;;;1.20;;
22230;SDS011;11284;48.086;-1.652;2023-01-15T01:42:13;4.80;;;0.93;;
22230;SDS011;11284;48.086;-1.652;2023-01-15T01:47:14;4.97;;;0.82;;
22230;SDS011;11284;48.086;-1.652;2023-01-15T01:49:42;5.47;;;0.80;;
22230;SDS011;11284;48.086;-1.652;2023-01-15T01:52:10;6.03;;;1.38;;
22230;SDS011;11284;48.086;-1.652;2023-01-15T01:54:40;5.68;;;1.30;;
22230;SDS011;11284;48.086;-1.652;2023-01-15T01:57:07;5.43;;;0.98;;
22230;SDS011;11284;48.086;-1.652;2023-01-15T01:59:33;9.18;;;1.27;;
22230;SDS011;11284;48.086;-1.652;2023-01-15T02:01:59;5.18;;;1.05;;
22230;SDS011;11284;48.086;-1.652;2023-01-15T02:04:26;5.50;;;1.27;;
22230;SDS011;11284;48.086;-1.652;2023-01-15T02:06:53;4.38;;;0.93;;
22230;SDS011;11284;48.086;-1.652;2023-01-15T02:09:19;3.70;;;0.77;;
22230;SDS011;11284;48.086;-1.652;2023-01-15T02:11:45;5.80;;;1.08;;
22230;SDS011;11284;48.086;-1.652;2023-01-15T02:14:24;5.38;;;0.90;;
22230;SDS011;11284;48.086;-1.652;2023-01-15T02:16:52;7.05;;;1.10;;
22230;SDS011;11284;48.086;-1.652;2023-01-15T02:29:41;5.30;;;0.70;;
22230;SDS011;11284;48.086;-1.652;2023-01-15T02:32:13;5.03;;;1.20;;
22230;SDS011;11284;48.086;-1.652;2023-01-15T02:34:43;5.40;;;0.90;;
22230;SDS011;11284;48.086;-1.652;2023-01-15T02:37:15;5.53;;;0.95;;
22230;SDS011;11284;48.086;-1.652;2023-01-15T02:39:43;6.32;;;0.90;;
22230;SDS011;11284;48.086;-1.652;2023-01-15T02:42:10;5.35;;;1.08;;
22230;SDS011;11284;48.086;-1.652;2023-01-15T02:44:39;6.82;;;1.10;;
22230;SDS011;11284;48.086;-1.652;2023-01-15T02:47:06;4.65;;;1.00;;
22230;SDS011;11284;48.086;-1.652;2023-01-15T02:49:33;6.03;;;1.13;;
22230;SDS011;11284;48.086;-1.652;2023-01-15T02:52:01;4.63;;;1.10;;
22230;SDS011;11284;48.086;-1.652;2023-01-15T02:54:50;6.05;;;1.15;;
22230;SDS011;11284;48.086;-1.652;2023-01-15T02:57:17;7.15;;;1.58;;
22230;SDS011;11284;48.086;-1.652;2023-01-15T02:59:46;6.75;;;1.10;;
22230;SDS011;11284;48.086;-1.652;2023-01-15T03:02:14;6.07;;;1.20;;
22230;SDS011;11284;48.086;-1.652;2023-01-15T03:04:46;7.93;;;1.08;;
22230;SDS011;11284;48.086;-1.652;2023-01-15T03:07:15;6.93;;;1.35;;
22230;SDS011;11284;48.086;-1.652;2023-01-15T03:09:43;6.35;;;1.27;;
22230;SDS011;11284;48.086;-1.652;2023-01-15T03:15:01;6.90;;;1.30;;
22230;SDS011;11284;48.086;-1.652;2023-01-15T03:17:53;7.15;;;1.30;;
22230;SDS011;11284;48.086;-1.652;2023-01-15T03:20:17;8.02;;;1.33;;
22230;SDS011;11284;48.086;-1.652;2023-01-15T03:22:45;8.52;;;1.20;;
22230;SDS011;11284;48.086;-1.652;2023-01-15T03:25:22;5.43;;;1.38;;
22230;SDS011;11284;48.086;-1.652;2023-01-15T03:27:49;9.40;;;2.10;;
22230;SDS011;11284;48.086;-1.652;2023-01-15T03:30:18;10.30;;;1.50;;
22230;SDS011;11284;48.086;-1.652;2023-01-15T03:32:45;9.10;;;1.70;;
22230;SDS011;11284;48.086;-1.652;2023-01-15T03:37:56;6.40;;;1.15;;
22230;SDS011;11284;48.086;-1.652;2023-01-15T03:40:22;8.82;;;1.80;;
22230;SDS011;11284;48.086;-1.652;2023-01-15T03:42:49;5.97;;;1.27;;
22230;SDS011;11284;48.086;-1.652;2023-01-15T03:45:37;6.05;;;1.35;;
22230;SDS011;11284;48.086;-1.652;2023-01-15T03:50:52;7.65;;;1.50;;
22230;SDS011;11284;48.086;-1.652;2023-01-15T03:53:20;6.35;;;1.40;;
22230;SDS011;11284;48.086;-1.652;2023-01-15T04:00:50;8.35;;;1.27;;
22230;SDS011;11284;48.086;-1.652;2023-01-15T04:03:17;7.75;;;1.30;;
22230;SDS011;11284;48.086;-1.652;2023-01-15T04:05:43;5.78;;;1.20;;
22230;SDS011;11284;48.086;-1.652;2023-01-15T04:08:10;7.53;;;1.48;;
22230;SDS011;11284;48.086;-1.652;2023-01-15T04:10:37;5.63;;;1.40;;
22230;SDS011;11284;48.086;-1.652;2023-01-15T04:13:03;8.25;;;1.30;;
22230;SDS011;11284;48.086;-1.652;2023-01-15T04:15:29;5.20;;;1.23;;
22230;SDS011;11284;48.086;-1.652;2023-01-15T04:17:55;6.70;;;1.17;;
22230;SDS011;11284;48.086;-1.652;2023-01-15T04:20:21;6.15;;;1.20;;
22230;SDS011;11284;48.086;-1.652;2023-01-15T04:22:47;5.35;;;1.30;;
22230;SDS011;11284;48.086;-1.652;2023-01-15T04:25:13;7.80;;;1.23;;
22230;SDS011;11284;48.086;-1.652;2023-01-15T04:27:39;7.25;;;1.13;;
22230;SDS011;11284;48.086;-1.652;2023-01-15T04:30:05;9.73;;;1.60;;
22230;SDS011;11284;48.086;-1.652;2023-01-15T04:32:31;7.40;;;1.13;;
22230;SDS011;11284;48.086;-1.652;2023-01-15T04:34:57;7.22;;;1.02;;
22230;SDS011;11284;48.086;-1.652;2023-01-15T04:37:23;8.85;;;1.60;;
22230;SDS011;11284;48.086;-1.652;2023-01-15T04:39:49;7.22;;;1.27;;
22230;SDS011;11284;48.086;-1.652;2023-01-15T04:42:15;8.60;;;1.00;;
22230;SDS011;11284;48.086;-1.652;2023-01-15T04:45:00;6.78;;;1.08;;
22230;SDS011;11284;48.086;-1.652;2023-01-15T04:47:28;5.68;;;1.45;;
22230;SDS011;11284;48.086;-1.652;2023-01-15T04:49:54;5.38;;;1.17;;
22230;SDS011;11284;48.086;-1.652;2023-01-15T04:52:20;5.05;;;1.00;;
22230;SDS011;11284;48.086;-1.652;2023-01-15T04:54:46;6.45;;;1.08;;
22230;SDS011;11284;48.086;-1.652;2023-01-15T04:57:12;8.40;;;1.50;;
22230;SDS011;11284;48.086;-1.652;2023-01-15T04:59:38;5.93;;;1.40;;
22230;SDS011;11284;48.086;-1.652;2023-01-15T05:02:04;6.63;;;1.20;;
22230;SDS011;11284;48.086;-1.652;2023-01-15T05:04:30;8.52;;;1.30;;
22230;SDS011;11284;48.086;-1.652;2023-01-15T05:06:57;4.95;;;0.98;;
22230;SDS011;11284;48.086;-1.652;2023-01-15T05:09:23;6.15;;;1.35;;
22230;SDS011;11284;48.086;-1.652;2023-01-15T05:11:49;6.05;;;1.15;;
22230;SDS011;11284;48.086;-1.652;2023-01-15T05:14:15;6.53;;;1.08;;
22230;SDS011;11284;48.086;-1.652;2023-01-15T05:16:41;8.57;;;1.42;;
22230;SDS011;11284;48.086;-1.652;2023-01-15T05:19:07;5.90;;;1.02;;
22230;SDS011;11284;48.086;-1.652;2023-01-15T05:21:35;6.50;;;1.00;;
22230;SDS011;11284;48.086;-1.652;2023-01-15T05:24:02;5.55;;;1.10;;
22230;SDS011;11284;48.086;-1.652;2023-01-15T05:26:29;6.13;;;1.17;;
22230;SDS011;11284;48.086;-1.652;2023-01-15T05:28:56;7.28;;;1.33;;
22230;SDS011;11284;48.086;-1.652;2023-01-15T05:31:22;7.95;;;1.92;;
22230;SDS011;11284;48.086;-1.652;2023-01-15T05:33:49;8.90;;;1.60;;
22230;SDS011;11284;48.086;-1.652;2023-01-15T05:36:16;6.07;;;1.35;;
22230;SDS011;11284;48.086;-1.652;2023-01-15T05:38:43;7.80;;;1.52;;
22230;SDS011;11284;48.086;-1.652;2023-01-15T05:41:10;8.88;;;1.30;;
22230;SDS011;11284;48.086;-1.652;2023-01-15T05:43:55;7.07;;;1.30;;
22230;SDS011;11284;48.086;-1.652;2023-01-15T05:46:21;5.95;;;1.05;;
22230;SDS011;11284;48.086;-1.652;2023-01-15T05:48:47;6.38;;;1.30;;
22230;SDS011;11284;48.086;-1.652;2023-01-15T05:51:14;10.10;;;1.48;;
22230;SDS011;11284;48.086;-1.652;2023-01-15T05:53:40;7.90;;;1.63;;
22230;SDS011;11284;48.086;-1.652;2023-01-15T05:56:06;8.73;;;1.40;;
22230;SDS011;11284;48.086;-1.652;2023-01-15T05:58:33;7.07;;;1.20;;
22230;SDS011;11284;48.086;-1.652;2023-01-15T06:00:59;4.32;;;1.10;;
22230;SDS011;11284;48.086;-1.652;2023-01-15T06:03:26;9.00;;;1.27;;
22230;SDS011;11284;48.086;-1.652;2023-01-15T06:05:52;9.57;;;1.55;;
22230;SDS011;11284;48.086;-1.652;2023-01-15T06:08:18;9.35;;;1.73;;
22230;SDS011;11284;48.086;-1.652;2023-01-15T06:10:44;7.47;;;1.27;;
22230;SDS011;11284;48.086;-1.652;2023-01-15T06:13:11;9.77;;;1.20;;
22230;SDS011;11284;48.086;-1.652;2023-01-15T06:15:37;8.52;;;1.30;;
22230;SDS011;11284;48.086;-1.652;2023-01-15T06:18:03;10.38;;;1.40;;
22230;SDS011;11284;48.086;-1.652;2023-01-15T06:20:29;7.65;;;1.25;;
22230;SDS011;11284;48.086;-1.652;2023-01-15T06:22:55;5.57;;;1.20;;
22230;SDS011;11284;48.086;-1.652;2023-01-15T06:25:21;8.68;;;1.38;;
22230;SDS011;11284;48.086;-1.652;2023-01-15T06:27:47;4.75;;;1.10;;
22230;SDS011;11284;48.086;-1.652;2023-01-15T06:30:13;11.52;;;1.40;;
22230;SDS011;11284;48.086;-1.652;2023-01-15T06:32:40;7.75;;;1.27;;
22230;SDS011;11284;48.086;-1.652;2023-01-15T06:35:06;6.22;;;1.30;;
22230;SDS011;11284;48.086;-1.652;2023-01-15T06:37:32;9.00;;;1.23;;
22230;SDS011;11284;48.086;-1.652;2023-01-15T06:39:58;7.85;;;1.38;;
22230;SDS011;11284;48.086;-1.652;2023-01-15T06:42:24;7.65;;;1.38;;
22230;SDS011;11284;48.086;-1.652;2023-01-15T06:45:09;10.35;;;1.30;;
22230;SDS011;11284;48.086;-1.652;2023-01-15T06:47:54;10.02;;;1.50;;
22230;SDS011;11284;48.086;-1.652;2023-01-15T06:50:20;7.03;;;1.25;;
22230;SDS011;11284;48.086;-1.652;2023-01-15T06:52:47;7.10;;;1.38;;
22230;SDS011;11284;48.086;-1.652;2023-01-15T06:55:13;12.85;;;1.63;;
22230;SDS011;11284;48.086;-1.652;2023-01-15T06:57:39;7.88;;;1.20;;
22230;SDS011;11284;48.086;-1.652;2023-01-15T07:00:06;5.45;;;1.27;;
22230;SDS011;11284;48.086;-1.652;2023-01-15T07:02:32;9.43;;;1.80;;
22230;SDS011;11284;48.086;-1.652;2023-01-15T07:04:59;8.27;;;1.65;;
22230;SDS011;11284;48.086;-1.652;2023-01-15T07:07:26;10.95;;;1.60;;
22230;SDS011;11284;48.086;-1.652;2023-01-15T07:09:52;7.45;;;1.73;;
22230;SDS011;11284;48.086;-1.652;2023-01-15T07:12:18;8.80;;;1.80;;
22230;SDS011;11284;48.086;-1.652;2023-01-15T07:14:44;7.72;;;1.30;;
22230;SDS011;11284;48.086;-1.652;2023-01-15T07:17:11;9.40;;;1.60;;
22230;SDS011;11284;48.086;-1.652;2023-01-15T07:19:37;7.38;;;1.40;;
22230;SDS011;11284;48.086;-1.652;2023-01-15T07:22:03;8.85;;;1.42;;
22230;SDS011;11284;48.086;-1.652;2023-01-15T07:24:29;8.77;;;1.77;;
22230;SDS011;11284;48.086;-1.652;2023-01-15T07:26:55;8.32;;;2.05;;
22230;SDS011;11284;48.086;-1.652;2023-01-15T07:29:21;8.88;;;1.52;;
22230;SDS011;11284;48.086;-1.652;2023-01-15T07:31:48;8.85;;;1.58;;
22230;SDS011;11284;48.086;-1.652;2023-01-15T07:34:14;9.07;;;1.75;;
22230;SDS011;11284;48.086;-1.652;2023-01-15T07:36:40;8.48;;;1.77;;
22230;SDS011;11284;48.086;-1.652;2023-01-15T07:39:07;7.05;;;1.50;;
22230;SDS011;11284;48.086;-1.652;2023-01-15T07:41:33;8.18;;;1.52;;
22230;SDS011;11284;48.086;-1.652;2023-01-15T07:44:18;9.60;;;1.60;;
22230;SDS011;11284;48.086;-1.652;2023-01-15T07:47:06;8.00;;;1.40;;
22230;SDS011;11284;48.086;-1.652;2023-01-15T07:49:52;7.30;;;1.38;;
22230;SDS011;11284;48.086;-1.652;2023-01-15T07:52:20;9.52;;;1.90;;
22230;SDS011;11284;48.086;-1.652;2023-01-15T07:54:47;10.80;;;1.52;;
22230;SDS011;11284;48.086;-1.652;2023-01-15T07:57:14;9.70;;;1.98;;
22230;SDS011;11284;48.086;-1.652;2023-01-15T07:59:41;10.95;;;2.42;;
22230;SDS011;11284;48.086;-1.652;2023-01-15T08:02:07;11.05;;;1.80;;
22230;SDS011;11284;48.086;-1.652;2023-01-15T08:04:33;7.80;;;1.55;;
22230;SDS011;11284;48.086;-1.652;2023-01-15T08:07:00;10.57;;;1.95;;
22230;SDS011;11284;48.086;-1.652;2023-01-15T08:09:26;10.32;;;1.80;;
22230;SDS011;11284;48.086;-1.652;2023-01-15T08:11:52;11.43;;;1.90;;
22230;SDS011;11284;48.086;-1.652;2023-01-15T08:14:37;7.95;;;1.88;;
22230;SDS011;11284;48.086;-1.652;2023-01-15T08:17:22;10.18;;;1.42;;
22230;SDS011;11284;48.086;-1.652;2023-01-15T08:19:48;8.95;;;1.98;;
22230;SDS011;11284;48.086;-1.652;2023-01-15T08:22:14;9.02;;;1.65;;
22230;SDS011;11284;48.086;-1.652;2023-01-15T08:24:40;9.95;;;1.90;;
22230;SDS011;11284;48.086;-1.652;2023-01-15T08:27:06;6.28;;;1.90;;
22230;SDS011;11284;48.086;-1.652;2023-01-15T08:29:32;12.55;;;2.63;;
22230;SDS011;11284;48.086;-1.652;2023-01-15T08:31:58;17.48;;;3.15;;
22230;SDS011;11284;48.086;-1.652;2023-01-15T08:34:24;12.40;;;2.10;;
22230;SDS011;11284;48.086;-1.652;2023-01-15T08:36:50;8.80;;;1.90;;
22230;SDS011;11284;48.086;-1.652;2023-01-15T08:39:21;10.35;;;2.13;;
22230;SDS011;11284;48.086;-1.652;2023-01-15T08:41:47;9.13;;;2.00;;
22230;SDS011;11284;48.086;-1.652;2023-01-15T08:44:13;10.05;;;2.10;;
22230;SDS011;11284;48.086;-1.652;2023-01-15T08:46:41;9.80;;;2.00;;
22230;SDS011;11284;48.086;-1.652;2023-01-15T08:49:08;10.23;;;1.90;;
22230;SDS011;11284;48.086;-1.652;2023-01-15T08:51:34;12.43;;;2.85;;
22230;SDS011;11284;48.086;-1.652;2023-01-15T08:54:00;11.90;;;2.40;;
22230;SDS011;11284;48.086;-1.652;2023-01-15T08:56:26;12.77;;;1.77;;
22230;SDS011;11284;48.086;-1.652;2023-01-15T08:58:52;7.82;;;1.52;;
22230;SDS011;11284;48.086;-1.652;2023-01-15T09:01:18;10.77;;;2.50;;
22230;SDS011;11284;48.086;-1.652;2023-01-15T09:03:44;6.50;;;1.77;;
22230;SDS011;11284;48.086;-1.652;2023-01-15T09:06:10;9.93;;;2.50;;
22230;SDS011;11284;48.086;-1.652;2023-01-15T09:08:37;9.30;;;2.67;;
22230;SDS011;11284;48.086;-1.652;2023-01-15T09:11:04;11.07;;;2.10;;
22230;SDS011;11284;48.086;-1.652;2023-01-15T09:13:31;10.23;;;2.15;;
22230;SDS011;11284;48.086;-1.652;2023-01-15T09:16:01;8.43;;;2.60;;
22230;SDS011;11284;48.086;-1.652;2023-01-15T09:18:27;9.98;;;2.30;;
22230;SDS011;11284;48.086;-1.652;2023-01-15T09:20:53;11.32;;;2.58;;
22230;SDS011;11284;48.086;-1.652;2023-01-15T09:23:19;15.13;;;1.92;;
22230;SDS011;11284;48.086;-1.652;2023-01-15T09:25:55;10.80;;;1.92;;
22230;SDS011;11284;48.086;-1.652;2023-01-15T09:28:21;8.23;;;1.67;;
22230;SDS011;11284;48.086;-1.652;2023-01-15T09:30:47;15.75;;;5.43;;
22230;SDS011;11284;48.086;-1.652;2023-01-15T09:33:13;7.80;;;2.65;;
22230;SDS011;11284;48.086;-1.652;2023-01-15T09:35:40;8.93;;;1.85;;
22230;SDS011;11284;48.086;-1.652;2023-01-15T09:38:09;8.60;;;2.22;;
22230;SDS011;11284;48.086;-1.652;2023-01-15T09:43:17;10.48;;;2.42;;
22230;SDS011;11284;48.086;-1.652;2023-01-15T09:45:50;8.07;;;2.13;;
22230;SDS011;11284;48.086;-1.652;2023-01-15T09:53:41;8.32;;;1.65;;
22230;SDS011;11284;48.086;-1.652;2023-01-15T09:56:04;8.80;;;1.83;;
22230;SDS011;11284;48.086;-1.652;2023-01-15T09:58:37;8.05;;;1.55;;
22230;SDS011;11284;48.086;-1.652;2023-01-15T10:01:05;6.82;;;1.88;;
22230;SDS011;11284;48.086;-1.652;2023-01-15T10:03:38;8.90;;;2.08;;
22230;SDS011;11284;48.086;-1.652;2023-01-15T10:06:08;9.82;;;1.67;;
22230;SDS011;11284;48.086;-1.652;2023-01-15T10:08:39;8.23;;;1.50;;
22230;SDS011;11284;48.086;-1.652;2023-01-15T10:13:43;9.07;;;1.35;;
22230;SDS011;11284;48.086;-1.652;2023-01-15T10:16:10;8.63;;;1.42;;
22230;SDS011;11284;48.086;-1.652;2023-01-15T10:18:38;12.10;;;1.70;;
22230;SDS011;11284;48.086;-1.652;2023-01-15T10:23:46;7.93;;;1.63;;
22230;SDS011;11284;48.086;-1.652;2023-01-15T10:26:16;8.82;;;2.33;;
22230;SDS011;11284;48.086;-1.652;2023-01-15T10:28:52;9.90;;;2.90;;
22230;SDS011;11284;48.086;-1.652;2023-01-15T10:31:20;6.85;;;1.85;;
22230;SDS011;11284;48.086;-1.652;2023-01-15T10:36:22;10.55;;;2.22;;
22230;SDS011;11284;48.086;-1.652;2023-01-15T10:41:37;9.07;;;2.47;;
22230;SDS011;11284;48.086;-1.652;2023-01-15T10:44:14;9.55;;;3.85;;
22230;SDS011;11284;48.086;-1.652;2023-01-15T10:46:42;11.38;;;2.50;;
22230;SDS011;11284;48.086;-1.652;2023-01-15T10:49:13;12.32;;;2.00;;
22230;SDS011;11284;48.086;-1.652;2023-01-15T10:51:41;9.70;;;2.20;;
22230;SDS011;11284;48.086;-1.652;2023-01-15T10:54:23;9.10;;;1.70;;
22230;SDS011;11284;48.086;-1.652;2023-01-15T10:56:58;7.18;;;1.52;;
22230;SDS011;11284;48.086;-1.652;2023-01-15T11:00:08;10.88;;;1.80;;
22230;SDS011;11284;48.086;-1.652;2023-01-15T11:02:20;6.82;;;1.60;;
22230;SDS011;11284;48.086;-1.652;2023-01-15T11:04:51;9.05;;;1.70;;
22230;SDS011;11284;48.086;-1.652;2023-01-15T11:07:18;7.03;;;1.58;;
22230;SDS011;11284;48.086;-1.652;2023-01-15T11:09:45;7.30;;;1.55;;
22230;SDS011;11284;48.086;-1.652;2023-01-15T11:14:43;12.23;;;2.20;;
22230;SDS011;11284;48.086;-1.652;2023-01-15T11:17:30;8.23;;;1.67;;
22230;SDS011;11284;48.086;-1.652;2023-01-15T11:22:50;6.88;;;1.90;;
22230;SDS011;11284;48.086;-1.652;2023-01-15T11:25:29;5.28;;;1.40;;
22230;SDS011;11284;48.086;-1.652;2023-01-15T11:27:56;6.75;;;1.80;;
22230;SDS011;11284;48.086;-1.652;2023-01-15T11:30:30;6.05;;;1.38;;
22230;SDS011;11284;48.086;-1.652;2023-01-15T11:32:57;7.72;;;1.92;;
22230;SDS011;11284;48.086;-1.652;2023-01-15T11:35:23;9.95;;;2.03;;
22230;SDS011;11284;48.086;-1.652;2023-01-15T11:37:59;13.80;;;4.93;;
22230;SDS011;11284;48.086;-1.652;2023-01-15T11:40:25;12.75;;;6.90;;
22230;SDS011;11284;48.086;-1.652;2023-01-15T11:42:51;7.38;;;2.55;;
22230;SDS011;11284;48.086;-1.652;2023-01-15T11:45:49;8.70;;;2.33;;
22230;SDS011;11284;48.086;-1.652;2023-01-15T11:48:44;7.72;;;1.90;;
22230;SDS011;11284;48.086;-1.652;2023-01-15T11:51:29;8.77;;;2.13;;
22230;SDS011;11284;48.086;-1.652;2023-01-15T11:53:58;6.68;;;1.67;;
22230;SDS011;11284;48.086;-1.652;2023-01-15T11:56:26;6.45;;;1.50;;
22230;SDS011;11284;48.086;-1.652;2023-01-15T11:58:53;8.68;;;1.75;;
22230;SDS011;11284;48.086;-1.652;2023-01-15T12:01:21;9.65;;;1.70;;
22230;SDS011;11284;48.086;-1.652;2023-01-15T12:03:50;9.68;;;2.00;;
22230;SDS011;11284;48.086;-1.652;2023-01-15T12:06:17;8.65;;;2.00;;
22230;SDS011;11284;48.086;-1.652;2023-01-15T12:08:51;8.93;;;2.25;;
22230;SDS011;11284;48.086;-1.652;2023-01-15T12:11:30;7.95;;;1.48;;
22230;SDS011;11284;48.086;-1.652;2023-01-15T12:18:54;7.57;;;1.55;;
22230;SDS011;11284;48.086;-1.652;2023-01-15T12:26:41;3.05;;;0.90;;
22230;SDS011;11284;48.086;-1.652;2023-01-15T12:31:45;5.35;;;1.20;;
22230;SDS011;11284;48.086;-1.652;2023-01-15T12:36:56;5.35;;;1.02;;
22230;SDS011;11284;48.086;-1.652;2023-01-15T12:39:29;3.58;;;0.80;;
22230;SDS011;11284;48.086;-1.652;2023-01-15T12:41:57;3.03;;;0.70;;
22230;SDS011;11284;48.086;-1.652;2023-01-15T12:44:47;4.13;;;1.25;;
22230;SDS011;11284;48.086;-1.652;2023-01-15T12:50:47;3.75;;;0.60;;
22230;SDS011;11284;48.086;-1.652;2023-01-15T12:52:49;5.70;;;0.90;;
22230;SDS011;11284;48.086;-1.652;2023-01-15T12:55:18;3.20;;;0.80;;
22230;SDS011;11284;48.086;-1.652;2023-01-15T12:57:46;4.95;;;0.98;;
22230;SDS011;11284;48.086;-1.652;2023-01-15T13:00:17;4.68;;;0.80;;
22230;SDS011;11284;48.086;-1.652;2023-01-15T13:05:20;4.28;;;0.95;;
22230;SDS011;11284;48.086;-1.652;2023-01-15T13:10:19;3.63;;;0.65;;
22230;SDS011;11284;48.086;-1.652;2023-01-15T13:12:47;4.80;;;1.27;;
22230;SDS011;11284;48.086;-1.652;2023-01-15T13:15:14;4.78;;;0.80;;
22230;SDS011;11284;48.086;-1.652;2023-01-15T13:25:32;4.85;;;1.20;;
22230;SDS011;11284;48.086;-1.652;2023-01-15T13:35:38;3.45;;;0.90;;
22230;SDS011;11284;48.086;-1.652;2023-01-15T13:38:05;4.07;;;0.90;;
22230;SDS011;11284;48.086;-1.652;2023-01-15T13:40:40;7.32;;;1.42;;
22230;SDS011;11284;48.086;-1.652;2023-01-15T13:43:08;4.82;;;1.17;;
22230;SDS011;11284;48.086;-1.652;2023-01-15T13:45:48;6.68;;;1.25;;
22230;SDS011;11284;48.086;-1.652;2023-01-15T13:51:41;5.40;;;1.20;;
22230;SDS011;11284;48.086;-1.652;2023-01-15T13:53:46;3.78;;;1.02;;
22230;SDS011;11284;48.086;-1.652;2023-01-15T13:56:24;6.03;;;1.02;;
22230;SDS011;11284;48.086;-1.652;2023-01-15T13:58:51;4.00;;;0.85;;
22230;SDS011;11284;48.086;-1.652;2023-01-15T14:06:42;6.20;;;1.13;;
22230;SDS011;11284;48.086;-1.652;2023-01-15T14:09:09;5.25;;;1.45;;
22230;SDS011;11284;48.086;-1.652;2023-01-15T14:11:41;5.13;;;0.90;;
22230;SDS011;11284;48.086;-1.652;2023-01-15T14:16:40;8.63;;;1.40;;
22230;SDS011;11284;48.086;-1.652;2023-01-15T14:21:42;7.30;;;1.95;;
22230;SDS011;11284;48.086;-1.652;2023-01-15T14:34:30;7.40;;;1.80;;
22230;SDS011;11284;48.086;-1.652;2023-01-15T14:36:57;7.72;;;1.75;;
22230;SDS011;11284;48.086;-1.652;2023-01-15T14:41:59;6.63;;;1.42;;
22230;SDS011;11284;48.086;-1.652;2023-01-15T14:44:45;7.70;;;1.60;;
22230;SDS011;11284;48.086;-1.652;2023-01-15T14:47:18;7.25;;;1.40;;
22230;SDS011;11284;48.086;-1.652;2023-01-15T14:49:57;7.47;;;1.60;;
22230;SDS011;11284;48.086;-1.652;2023-01-15T14:52:23;5.63;;;1.00;;
22230;SDS011;11284;48.086;-1.652;2023-01-15T14:54:50;7.97;;;1.60;;
22230;SDS011;11284;48.086;-1.652;2023-01-15T14:57:16;8.00;;;1.80;;
22230;SDS011;11284;48.086;-1.652;2023-01-15T14:59:52;6.70;;;1.60;;
22230;SDS011;11284;48.086;-1.652;2023-01-15T15:02:38;8.43;;;1.58;;
22230;SDS011;11284;48.086;-1.652;2023-01-15T15:05:10;10.13;;;1.80;;
22230;SDS011;11284;48.086;-1.652;2023-01-15T15:07:39;9.90;;;2.30;;
22230;SDS011;11284;48.086;-1.652;2023-01-15T15:10:08;8.40;;;1.88;;
22230;SDS011;11284;48.086;-1.652;2023-01-15T15:23:09;8.20;;;2.03;;
22230;SDS011;11284;48.086;-1.652;2023-01-15T15:25:37;7.63;;;1.88;;
22230;SDS011;11284;48.086;-1.652;2023-01-15T15:28:10;6.65;;;1.63;;
22230;SDS011;11284;48.086;-1.652;2023-01-15T15:30:40;10.15;;;2.33;;
22230;SDS011;11284;48.086;-1.652;2023-01-15T15:33:08;7.53;;;1.67;;
22230;SDS011;11284;48.086;-1.652;2023-01-15T15:35:36;10.32;;;2.13;;
22230;SDS011;11284;48.086;-1.652;2023-01-15T15:38:04;10.00;;;1.70;;
22230;SDS011;11284;48.086;-1.652;2023-01-15T15:40:34;8.65;;;2.03;;
22230;SDS011;11284;48.086;-1.652;2023-01-15T15:46:04;7.72;;;1.58;;
22230;SDS011;11284;48.086;-1.652;2023-01-15T15:48:50;11.18;;;2.15;;
22230;SDS011;11284;48.086;-1.652;2023-01-15T15:51:33;7.70;;;1.92;;
22230;SDS011;11284;48.086;-1.652;2023-01-15T15:56:34;10.07;;;2.58;;
22230;SDS011;11284;48.086;-1.652;2023-01-15T15:59:01;9.98;;;2.47;;
22230;SDS011;11284;48.086;-1.652;2023-01-15T16:01:29;8.27;;;2.38;;
22230;SDS011;11284;48.086;-1.652;2023-01-15T16:03:55;11.50;;;2.60;;
22230;SDS011;11284;48.086;-1.652;2023-01-15T16:06:22;10.65;;;2.63;;
22230;SDS011;11284;48.086;-1.652;2023-01-15T16:08:54;10.25;;;2.80;;
22230;SDS011;11284;48.086;-1.652;2023-01-15T16:11:20;10.18;;;2.60;;
22230;SDS011;11284;48.086;-1.652;2023-01-15T16:13:49;9.50;;;2.60;;
22230;SDS011;11284;48.086;-1.652;2023-01-15T16:16:16;10.02;;;2.42;;
22230;SDS011;11284;48.086;-1.652;2023-01-15T16:18:49;8.93;;;2.00;;
22230;SDS011;11284;48.086;-1.652;2023-01-15T16:23:58;11.48;;;2.72;;
22230;SDS011;11284;48.086;-1.652;2023-01-15T16:26:30;9.40;;;2.60;;
22230;SDS011;11284;48.086;-1.652;2023-01-15T16:28:58;11.98;;;2.50;;
22230;SDS011;11284;48.086;-1.652;2023-01-15T16:31:25;7.55;;;1.92;;
22230;SDS011;11284;48.086;-1.652;2023-01-15T16:33:56;11.25;;;2.55;;
22230;SDS011;11284;48.086;-1.652;2023-01-15T16:36:23;12.35;;;2.15;;
22230;SDS011;11284;48.086;-1.652;2023-01-15T16:38:49;12.32;;;2.83;;
22230;SDS011;11284;48.086;-1.652;2023-01-15T16:41:27;8.77;;;2.55;;
22230;SDS011;11284;48.086;-1.652;2023-01-15T16:43:59;10.73;;;2.38;;
22230;SDS011;11284;48.086;-1.652;2023-01-15T16:46:37;9.98;;;2.75;;
22230;SDS011;11284;48.086;-1.652;2023-01-15T16:51:57;9.57;;;2.33;;
22230;SDS011;11284;48.086;-1.652;2023-01-15T16:56:56;9.15;;;2.38;;
22230;SDS011;11284;48.086;-1.652;2023-01-15T17:01:55;9.93;;;2.47;;
22230;SDS011;11284;48.086;-1.652;2023-01-15T17:04:28;14.52;;;3.40;;
22230;SDS011;11284;48.086;-1.652;2023-01-15T17:09:20;8.57;;;2.10;;